createdAt,value
2018-12-21T00:00:42.711Z,18.62
2018-12-21T00:01:42.846Z,18.58
2018-12-21T00:02:44.846Z,18.58
2018-12-21T00:03:42.482Z,18.58
2018-12-21T00:04:42.508Z,18.57
2018-12-21T00:05:42.832Z,18.58
2018-12-21T00:06:42.513Z,18.57
2018-12-21T00:07:42.573Z,18.54
2018-12-21T00:08:42.414Z,18.54
2018-12-21T00:09:42.377Z,18.56
2018-12-21T00:10:42.684Z,18.56
2018-12-21T00:11:42.557Z,18.56
2018-12-21T00:12:42.786Z,18.57
2018-12-21T00:13:42.537Z,18.54
2018-12-21T00:14:42.597Z,18.53
2018-12-21T00:15:42.568Z,18.51
2018-12-21T00:16:43.050Z,18.54
2018-12-21T00:17:42.828Z,18.54
2018-12-21T00:18:42.761Z,18.51
2018-12-21T00:19:42.945Z,18.51
2018-12-21T00:20:42.835Z,18.53
2018-12-21T00:21:42.825Z,18.53
2018-12-21T00:22:42.648Z,18.51
2018-12-21T00:23:42.926Z,18.5
2018-12-21T00:24:42.456Z,18.5
2018-12-21T00:25:42.605Z,18.51
2018-12-21T00:26:42.770Z,18.49
2018-12-21T00:27:42.648Z,18.49
2018-12-21T00:28:42.477Z,18.49
2018-12-21T00:29:42.914Z,18.47
2018-12-21T00:30:42.383Z,18.47
2018-12-21T00:31:43.197Z,18.47
2018-12-21T00:32:42.294Z,18.44
2018-12-21T00:33:43.036Z,18.46
2018-12-21T00:34:42.944Z,18.47
2018-12-21T00:35:42.428Z,18.47
2018-12-21T00:36:42.512Z,18.46
2018-12-21T00:37:42.474Z,18.46
2018-12-21T00:38:43.142Z,18.47
2018-12-21T00:39:42.401Z,18.46
2018-12-21T00:40:42.977Z,18.46
2018-12-21T00:41:42.591Z,18.44
2018-12-21T00:42:42.561Z,18.44
2018-12-21T00:43:42.784Z,18.43
2018-12-21T00:44:42.891Z,18.44
2018-12-21T00:45:42.498Z,18.46
2018-12-21T00:46:42.413Z,18.44
2018-12-21T00:47:43.039Z,18.43
2018-12-21T00:48:42.729Z,18.44
2018-12-21T00:49:42.489Z,18.41
2018-12-21T00:50:43.056Z,18.43
2018-12-21T00:51:43.007Z,18.43
2018-12-21T00:52:42.834Z,18.4
2018-12-21T00:53:42.535Z,18.43
2018-12-21T00:54:42.431Z,18.43
2018-12-21T00:55:42.538Z,18.41
2018-12-21T00:56:42.815Z,18.4
2018-12-21T00:57:42.362Z,18.4
2018-12-21T00:58:42.501Z,18.41
2018-12-21T00:59:42.420Z,18.41
2018-12-21T01:00:42.718Z,18.39
2018-12-21T01:01:42.521Z,18.41
2018-12-21T01:02:42.939Z,18.37
2018-12-21T01:03:42.448Z,18.37
2018-12-21T01:04:42.391Z,18.37
2018-12-21T01:05:42.798Z,18.36
2018-12-21T01:06:42.424Z,18.37
2018-12-21T01:07:42.861Z,18.36
2018-12-21T01:08:42.412Z,18.35
2018-12-21T01:09:42.761Z,18.36
2018-12-21T01:10:42.542Z,18.36
2018-12-21T01:11:42.447Z,18.37
2018-12-21T01:12:42.402Z,18.35
2018-12-21T01:13:42.703Z,18.36
2018-12-21T01:14:42.849Z,18.35
2018-12-21T01:15:42.528Z,18.33
2018-12-21T01:16:42.596Z,18.33
2018-12-21T01:17:42.409Z,18.35
2018-12-21T01:18:42.851Z,18.35
2018-12-21T01:19:43.300Z,18.35
2018-12-21T01:20:42.874Z,18.33
2018-12-21T01:21:42.433Z,18.33
2018-12-21T01:22:42.417Z,18.3
2018-12-21T01:23:42.817Z,18.32
2018-12-21T01:24:42.462Z,18.32
2018-12-21T01:25:42.813Z,18.32
2018-12-21T01:26:42.434Z,18.32
2018-12-21T01:27:43.512Z,18.29
2018-12-21T01:28:42.693Z,18.3
2018-12-21T01:29:42.811Z,18.3
2018-12-21T01:30:42.615Z,18.3
2018-12-21T01:31:42.487Z,18.3
2018-12-21T01:32:42.568Z,18.3
2018-12-21T01:33:42.375Z,18.3
2018-12-21T01:34:42.890Z,18.29
2018-12-21T01:35:42.560Z,18.3
2018-12-21T01:36:42.451Z,18.3
2018-12-21T01:37:42.418Z,18.29
2018-12-21T01:38:42.465Z,18.29
2018-12-21T01:39:42.643Z,18.28
2018-12-21T01:40:42.431Z,18.26
2018-12-21T01:41:42.616Z,18.26
2018-12-21T01:42:42.923Z,18.29
2018-12-21T01:43:42.530Z,18.26
2018-12-21T01:44:42.398Z,18.26
2018-12-21T01:45:42.500Z,18.26
2018-12-21T01:46:42.627Z,18.25
2018-12-21T01:47:43.265Z,18.26
2018-12-21T01:48:42.341Z,18.26
2018-12-21T01:49:42.594Z,18.28
2018-12-21T01:50:42.675Z,18.26
2018-12-21T01:51:47.637Z,18.25
2018-12-21T01:52:42.561Z,18.25
2018-12-21T01:53:42.430Z,18.26
2018-12-21T01:54:42.531Z,18.25
2018-12-21T01:55:43.242Z,18.23
2018-12-21T01:56:42.821Z,18.25
2018-12-21T01:57:43.191Z,18.23
2018-12-21T01:58:42.481Z,18.25
2018-12-21T01:59:42.444Z,18.22
2018-12-21T02:00:42.824Z,18.23
2018-12-21T02:01:42.754Z,18.22
2018-12-21T02:02:42.348Z,18.21
2018-12-21T02:03:42.855Z,18.22
2018-12-21T02:04:42.775Z,18.21
2018-12-21T02:05:42.875Z,18.21
2018-12-21T02:06:42.628Z,18.21
2018-12-21T02:07:42.470Z,18.19
2018-12-21T02:08:42.347Z,18.21
2018-12-21T02:09:42.704Z,18.22
2018-12-21T02:10:42.361Z,18.18
2018-12-21T02:11:42.309Z,18.19
2018-12-21T02:12:42.732Z,18.21
2018-12-21T02:13:42.714Z,18.19
2018-12-21T02:14:42.652Z,18.19
2018-12-21T02:15:42.686Z,18.22
2018-12-21T02:16:42.478Z,18.18
2018-12-21T02:17:42.868Z,18.18
2018-12-21T02:18:42.778Z,18.18
2018-12-21T02:19:42.521Z,18.18
2018-12-21T02:20:42.433Z,18.18
2018-12-21T02:21:42.581Z,18.19
2018-12-21T02:22:42.511Z,18.18
2018-12-21T02:23:42.521Z,18.19
2018-12-21T02:24:42.774Z,18.19
2018-12-21T02:25:43.430Z,18.16
2018-12-21T02:26:42.344Z,18.18
2018-12-21T02:27:42.480Z,18.19
2018-12-21T02:28:42.492Z,18.18
2018-12-21T02:29:42.345Z,18.18
2018-12-21T02:30:42.409Z,18.16
2018-12-21T02:31:42.924Z,18.15
2018-12-21T02:32:43.490Z,18.13
2018-12-21T02:33:42.873Z,18.18
2018-12-21T02:34:42.535Z,18.15
2018-12-21T02:35:42.409Z,18.15
2018-12-21T02:36:42.507Z,18.13
2018-12-21T02:37:42.597Z,18.13
2018-12-21T02:38:42.440Z,18.15
2018-12-21T02:39:42.566Z,18.13
2018-12-21T02:40:42.681Z,18.13
2018-12-21T02:41:42.552Z,18.11
2018-12-21T02:42:42.379Z,18.11
2018-12-21T02:43:42.494Z,18.11
2018-12-21T02:44:42.383Z,18.12
2018-12-21T02:45:43.080Z,18.13
2018-12-21T02:46:42.279Z,18.12
2018-12-21T02:47:42.337Z,18.11
2018-12-21T02:48:42.372Z,18.09
2018-12-21T02:49:42.898Z,18.11
2018-12-21T02:50:42.599Z,18.12
2018-12-21T02:51:42.482Z,18.09
2018-12-21T02:52:42.618Z,18.09
2018-12-21T02:53:42.480Z,18.09
2018-12-21T02:54:42.544Z,18.09
2018-12-21T02:55:42.910Z,18.11
2018-12-21T02:56:42.282Z,18.09
2018-12-21T02:57:42.687Z,18.09
2018-12-21T02:58:42.776Z,18.09
2018-12-21T02:59:42.851Z,18.08
2018-12-21T03:00:42.439Z,18.09
2018-12-21T03:01:42.979Z,18.07
2018-12-21T03:02:42.393Z,18.07
2018-12-21T03:03:42.820Z,18.07
2018-12-21T03:04:43.347Z,18.08
2018-12-21T03:05:42.334Z,18.05
2018-12-21T03:06:42.308Z,18.08
2018-12-21T03:07:42.540Z,18.05
2018-12-21T03:08:42.604Z,18.07
2018-12-21T03:09:42.823Z,18.07
2018-12-21T03:10:42.333Z,18.04
2018-12-21T03:11:42.468Z,18.07
2018-12-21T03:12:42.792Z,18.05
2018-12-21T03:13:43.089Z,18.07
2018-12-21T03:14:43.335Z,18.04
2018-12-21T03:15:42.497Z,18.02
2018-12-21T03:16:42.767Z,18.05
2018-12-21T03:17:42.869Z,18.05
2018-12-21T03:18:42.482Z,18.07
2018-12-21T03:19:42.550Z,18.05
2018-12-21T03:20:42.627Z,18.02
2018-12-21T03:21:42.527Z,18.01
2018-12-21T03:22:42.545Z,18.05
2018-12-21T03:23:42.532Z,18.04
2018-12-21T03:24:42.768Z,18.05
2018-12-21T03:25:42.476Z,18.04
2018-12-21T03:26:42.492Z,18.04
2018-12-21T03:27:42.672Z,18.04
2018-12-21T03:28:42.376Z,18.02
2018-12-21T03:29:43.054Z,18.01
2018-12-21T03:30:42.933Z,18.01
2018-12-21T03:31:42.831Z,18.01
2018-12-21T03:32:42.462Z,18.02
2018-12-21T03:33:42.769Z,18.01
2018-12-21T03:34:42.752Z,18.01
2018-12-21T03:35:42.661Z,18.01
2018-12-21T03:36:43.010Z,18.02
2018-12-21T03:37:42.945Z,18.02
2018-12-21T03:38:42.688Z,18.01
2018-12-21T03:39:42.849Z,17.98
2018-12-21T03:40:43.250Z,18.02
2018-12-21T03:41:42.273Z,17.97
2018-12-21T03:42:43.236Z,18.01
2018-12-21T03:43:42.389Z,17.98
2018-12-21T03:44:42.258Z,18.01
2018-12-21T03:45:42.692Z,18
2018-12-21T03:46:42.518Z,18.01
2018-12-21T03:47:42.707Z,18
2018-12-21T03:48:42.819Z,18
2018-12-21T03:49:42.659Z,17.98
2018-12-21T03:50:42.717Z,17.98
2018-12-21T03:51:42.329Z,17.97
2018-12-21T03:52:42.794Z,18.01
2018-12-21T03:53:42.383Z,18.01
2018-12-21T03:54:42.752Z,17.98
2018-12-21T03:55:42.269Z,17.98
2018-12-21T03:56:42.466Z,18
2018-12-21T03:57:42.648Z,17.98
2018-12-21T03:58:42.332Z,17.97
2018-12-21T03:59:42.279Z,17.95
2018-12-21T04:00:42.672Z,17.97
2018-12-21T04:01:42.808Z,17.97
2018-12-21T04:02:42.553Z,17.98
2018-12-21T04:03:42.888Z,17.95
2018-12-21T04:04:42.635Z,17.97
2018-12-21T04:05:42.453Z,17.97
2018-12-21T04:06:42.326Z,17.95
2018-12-21T04:07:42.954Z,17.97
2018-12-21T04:08:42.328Z,17.95
2018-12-21T04:09:42.510Z,17.94
2018-12-21T04:10:42.533Z,17.94
2018-12-21T04:11:42.339Z,17.95
2018-12-21T04:12:42.812Z,17.95
2018-12-21T04:13:42.438Z,17.95
2018-12-21T04:14:42.462Z,17.95
2018-12-21T04:15:42.661Z,17.94
2018-12-21T04:16:42.449Z,17.93
2018-12-21T04:17:42.237Z,17.94
2018-12-21T04:18:42.476Z,17.95
2018-12-21T04:19:42.293Z,17.93
2018-12-21T04:20:42.450Z,17.91
2018-12-21T04:21:42.741Z,17.93
2018-12-21T04:22:42.377Z,17.93
2018-12-21T04:23:42.536Z,17.91
2018-12-21T04:24:42.277Z,17.93
2018-12-21T04:25:42.764Z,17.91
2018-12-21T04:26:42.481Z,17.89
2018-12-21T04:27:42.486Z,17.89
2018-12-21T04:28:42.301Z,17.88
2018-12-21T04:29:42.408Z,17.91
2018-12-21T04:30:42.553Z,17.91
2018-12-21T04:31:42.615Z,17.89
2018-12-21T04:32:42.422Z,17.91
2018-12-21T04:33:42.301Z,17.89
2018-12-21T04:34:42.577Z,17.91
2018-12-21T04:35:42.578Z,17.93
2018-12-21T04:36:42.683Z,17.91
2018-12-21T04:37:42.430Z,17.89
2018-12-21T04:38:42.333Z,17.91
2018-12-21T04:39:42.866Z,17.89
2018-12-21T04:40:42.774Z,17.91
2018-12-21T04:41:42.273Z,17.89
2018-12-21T04:42:42.408Z,17.93
2018-12-21T04:43:42.338Z,17.89
2018-12-21T04:44:42.343Z,17.89
2018-12-21T04:45:42.730Z,17.91
2018-12-21T04:46:42.189Z,17.93
2018-12-21T04:47:42.574Z,17.91
2018-12-21T04:48:43.352Z,17.91
2018-12-21T04:49:42.364Z,17.88
2018-12-21T04:50:42.657Z,17.93
2018-12-21T04:51:43.251Z,17.93
2018-12-21T04:52:43.940Z,17.93
2018-12-21T04:53:42.481Z,17.91
2018-12-21T04:54:42.926Z,17.94
2018-12-21T04:55:42.709Z,17.94
2018-12-21T04:56:43.089Z,17.97
2018-12-21T04:57:42.828Z,17.95
2018-12-21T04:58:42.895Z,17.97
2018-12-21T04:59:42.828Z,18
2018-12-21T05:00:42.354Z,18
2018-12-21T05:01:42.567Z,18.02
2018-12-21T05:02:42.511Z,18.02
2018-12-21T05:03:42.748Z,18.04
2018-12-21T05:04:42.332Z,18.08
2018-12-21T05:05:42.700Z,18.07
2018-12-21T05:06:43.065Z,18.09
2018-12-21T05:07:42.406Z,18.11
2018-12-21T05:08:42.496Z,18.09
2018-12-21T05:09:42.287Z,18.11
2018-12-21T05:10:42.446Z,18.15
2018-12-21T05:11:42.307Z,18.13
2018-12-21T05:12:42.607Z,18.16
2018-12-21T05:13:42.242Z,18.15
2018-12-21T05:14:42.591Z,18.19
2018-12-21T05:15:42.462Z,18.22
2018-12-21T05:16:42.342Z,18.22
2018-12-21T05:17:42.763Z,18.23
2018-12-21T05:18:42.250Z,18.26
2018-12-21T05:19:42.567Z,18.28
2018-12-21T05:20:42.275Z,18.28
2018-12-21T05:21:42.452Z,18.32
2018-12-21T05:22:42.433Z,18.3
2018-12-21T05:23:42.357Z,18.32
2018-12-21T05:24:42.903Z,18.32
2018-12-21T05:25:42.408Z,18.35
2018-12-21T05:26:42.956Z,18.37
2018-12-21T05:27:42.220Z,18.39
2018-12-21T05:28:42.367Z,18.37
2018-12-21T05:29:42.474Z,18.4
2018-12-21T05:30:42.495Z,18.43
2018-12-21T05:31:42.408Z,18.44
2018-12-21T05:32:42.938Z,18.47
2018-12-21T05:33:42.855Z,18.46
2018-12-21T05:34:42.805Z,18.5
2018-12-21T05:35:42.359Z,18.46
2018-12-21T05:36:42.222Z,18.5
2018-12-21T05:37:42.580Z,18.5
2018-12-21T05:38:42.497Z,18.53
2018-12-21T05:39:42.470Z,18.54
2018-12-21T05:40:42.481Z,18.56
2018-12-21T05:41:42.343Z,18.54
2018-12-21T05:42:42.597Z,18.58
2018-12-21T05:43:42.255Z,18.6
2018-12-21T05:44:42.615Z,18.6
2018-12-21T05:45:42.762Z,18.6
2018-12-21T05:46:42.428Z,18.62
2018-12-21T05:47:42.095Z,18.63
2018-12-21T05:48:42.780Z,18.64
2018-12-21T05:49:42.384Z,18.67
2018-12-21T05:50:42.880Z,18.67
2018-12-21T05:51:42.438Z,18.71
2018-12-21T05:52:42.373Z,18.71
2018-12-21T05:53:42.481Z,18.73
2018-12-21T05:54:42.509Z,18.74
2018-12-21T05:55:42.359Z,18.74
2018-12-21T05:56:42.402Z,18.75
2018-12-21T05:57:42.356Z,18.75
2018-12-21T05:58:42.402Z,18.81
2018-12-21T05:59:42.617Z,18.81
2018-12-21T06:00:42.825Z,18.8
2018-12-21T06:01:42.386Z,18.81
2018-12-21T06:02:42.835Z,18.84
2018-12-21T06:03:42.318Z,18.85
2018-12-21T06:04:42.547Z,18.84
2018-12-21T06:05:42.186Z,18.85
2018-12-21T06:06:42.361Z,18.87
2018-12-21T06:07:42.346Z,18.87
2018-12-21T06:08:42.481Z,18.9
2018-12-21T06:09:42.796Z,18.9
2018-12-21T06:10:42.392Z,18.88
2018-12-21T06:11:42.985Z,18.91
2018-12-21T06:12:42.706Z,18.88
2018-12-21T06:13:42.618Z,18.92
2018-12-21T06:14:42.316Z,18.91
2018-12-21T06:15:42.480Z,18.92
2018-12-21T06:16:42.197Z,18.92
2018-12-21T06:17:42.442Z,18.94
2018-12-21T06:18:42.237Z,18.95
2018-12-21T06:19:42.560Z,18.97
2018-12-21T06:20:42.494Z,18.98
2018-12-21T06:21:42.430Z,18.97
2018-12-21T06:22:42.361Z,18.98
2018-12-21T06:23:42.588Z,18.98
2018-12-21T06:24:42.284Z,19.01
2018-12-21T06:25:43.485Z,19.01
2018-12-21T06:26:42.823Z,19.01
2018-12-21T06:27:42.506Z,19.02
2018-12-21T06:28:42.644Z,19.02
2018-12-21T06:29:42.555Z,19.02
2018-12-21T06:30:42.379Z,19.03
2018-12-21T06:31:43.068Z,19.02
2018-12-21T06:32:42.547Z,19.03
2018-12-21T06:33:42.568Z,19.03
2018-12-21T06:34:42.170Z,19.03
2018-12-21T06:35:42.408Z,19.05
2018-12-21T06:36:42.170Z,19.03
2018-12-21T06:37:42.697Z,19.06
2018-12-21T06:38:43.097Z,19.05
2018-12-21T06:39:42.980Z,19.06
2018-12-21T06:40:42.446Z,19.09
2018-12-21T06:41:42.505Z,19.06
2018-12-21T06:42:42.624Z,19.11
2018-12-21T06:43:42.858Z,19.11
2018-12-21T06:44:42.273Z,19.13
2018-12-21T06:45:42.478Z,19.15
2018-12-21T06:46:42.706Z,19.16
2018-12-21T06:47:43.106Z,19.16
2018-12-21T06:48:42.164Z,19.19
2018-12-21T06:49:42.405Z,19.2
2018-12-21T06:50:42.649Z,19.2
2018-12-21T06:51:42.386Z,19.25
2018-12-21T06:52:42.899Z,19.23
2018-12-21T06:53:42.606Z,19.27
2018-12-21T06:54:42.682Z,19.25
2018-12-21T06:55:42.598Z,19.26
2018-12-21T06:56:42.397Z,19.27
2018-12-21T06:57:42.181Z,19.3
2018-12-21T06:58:42.610Z,19.3
2018-12-21T06:59:42.258Z,19.3
2018-12-21T07:00:42.343Z,19.35
2018-12-21T07:01:42.738Z,19.37
2018-12-21T07:02:42.250Z,19.4
2018-12-21T07:03:42.778Z,19.4
2018-12-21T07:04:42.374Z,19.4
2018-12-21T07:05:42.692Z,19.4
2018-12-21T07:06:42.289Z,19.45
2018-12-21T07:07:42.345Z,19.46
2018-12-21T07:08:42.462Z,19.46
2018-12-21T07:09:42.179Z,19.46
2018-12-21T07:10:42.437Z,19.47
2018-12-21T07:11:42.260Z,19.49
2018-12-21T07:12:42.648Z,19.49
2018-12-21T07:13:42.766Z,19.49
2018-12-21T07:14:42.352Z,19.49
2018-12-21T07:15:43.042Z,19.49
2018-12-21T07:16:42.308Z,19.5
2018-12-21T07:17:42.194Z,19.52
2018-12-21T07:18:42.590Z,19.49
2018-12-21T07:19:42.482Z,19.52
2018-12-21T07:20:42.474Z,19.52
2018-12-21T07:21:42.425Z,19.52
2018-12-21T07:22:42.282Z,19.49
2018-12-21T07:23:42.854Z,19.49
2018-12-21T07:24:42.209Z,19.5
2018-12-21T07:25:42.426Z,19.5
2018-12-21T07:26:42.232Z,19.5
2018-12-21T07:27:42.353Z,19.5
2018-12-21T07:28:42.224Z,19.5
2018-12-21T07:29:42.137Z,19.5
2018-12-21T07:30:42.494Z,19.5
2018-12-21T07:31:42.276Z,19.5
2018-12-21T07:32:42.415Z,19.5
2018-12-21T07:33:42.346Z,19.5
2018-12-21T07:34:42.300Z,19.5
2018-12-21T07:35:43.107Z,19.49
2018-12-21T07:36:42.798Z,19.49
2018-12-21T07:37:42.353Z,19.47
2018-12-21T07:38:42.308Z,19.49
2018-12-21T07:39:42.186Z,19.5
2018-12-21T07:40:42.286Z,19.5
2018-12-21T07:41:42.461Z,19.49
2018-12-21T07:42:42.531Z,19.53
2018-12-21T07:43:42.421Z,19.53
2018-12-21T07:44:42.275Z,19.5
2018-12-21T07:45:42.432Z,19.5
2018-12-21T07:46:42.455Z,19.49
2018-12-21T07:47:42.292Z,19.52
2018-12-21T07:48:42.442Z,19.5
2018-12-21T07:49:42.470Z,19.54
2018-12-21T07:50:42.444Z,19.52
2018-12-21T07:51:42.405Z,19.54
2018-12-21T07:52:42.286Z,19.52
2018-12-21T07:53:42.296Z,19.49
2018-12-21T07:54:42.533Z,19.47
2018-12-21T07:55:42.377Z,19.5
2018-12-21T07:56:42.286Z,19.47
2018-12-21T07:57:42.325Z,19.47
2018-12-21T07:58:42.193Z,19.46
2018-12-21T07:59:42.404Z,19.45
2018-12-21T08:00:42.417Z,19.47
2018-12-21T08:01:42.309Z,19.47
2018-12-21T08:02:42.264Z,19.46
2018-12-21T08:03:42.773Z,19.47
2018-12-21T08:04:42.770Z,19.49
2018-12-21T08:05:42.775Z,19.45
2018-12-21T08:06:42.770Z,19.46
2018-12-21T08:07:42.235Z,19.43
2018-12-21T08:08:42.603Z,19.45
2018-12-21T08:09:42.271Z,19.46
2018-12-21T08:10:42.515Z,19.46
2018-12-21T08:11:42.747Z,19.43
2018-12-21T08:12:42.449Z,19.46
2018-12-21T08:13:42.745Z,19.45
2018-12-21T08:14:42.321Z,19.49
2018-12-21T08:15:43.287Z,19.45
2018-12-21T08:16:42.616Z,19.46
2018-12-21T08:17:42.562Z,19.46
2018-12-21T08:18:42.394Z,19.49
2018-12-21T08:19:42.599Z,19.46
2018-12-21T08:20:42.447Z,19.47
2018-12-21T08:21:42.409Z,19.47
2018-12-21T08:22:42.915Z,19.52
2018-12-21T08:23:44.811Z,19.5
2018-12-21T08:24:42.527Z,19.52
2018-12-21T08:25:42.824Z,19.49
2018-12-21T08:26:42.444Z,19.49
2018-12-21T08:27:42.576Z,19.49
2018-12-21T08:28:42.107Z,19.5
2018-12-21T08:29:42.797Z,19.52
2018-12-21T08:30:42.268Z,19.52
2018-12-21T08:31:42.235Z,19.53
2018-12-21T08:32:42.228Z,19.53
2018-12-21T08:33:42.326Z,19.52
2018-12-21T08:34:42.645Z,19.52
2018-12-21T08:35:42.499Z,19.54
2018-12-21T08:36:42.424Z,19.54
2018-12-21T08:37:42.620Z,19.56
2018-12-21T08:38:42.532Z,19.58
2018-12-21T08:39:42.512Z,19.57
2018-12-21T08:40:42.942Z,19.54
2018-12-21T08:41:42.203Z,19.57
2018-12-21T08:42:42.904Z,19.58
2018-12-21T08:43:42.275Z,19.58
2018-12-21T08:44:42.728Z,19.58
2018-12-21T08:45:42.449Z,19.6
2018-12-21T08:46:42.427Z,19.6
2018-12-21T08:47:42.330Z,19.6
2018-12-21T08:48:42.258Z,19.63
2018-12-21T08:49:42.417Z,19.6
2018-12-21T08:50:42.062Z,19.6
2018-12-21T08:51:42.727Z,19.61
2018-12-21T08:52:42.771Z,19.58
2018-12-21T08:53:42.417Z,19.61
2018-12-21T08:54:42.529Z,19.61
2018-12-21T08:55:42.195Z,19.61
2018-12-21T08:56:42.305Z,19.63
2018-12-21T08:57:42.416Z,19.61
2018-12-21T08:58:42.319Z,19.64
2018-12-21T08:59:43.037Z,19.61
2018-12-21T09:00:42.782Z,19.64
2018-12-21T09:01:42.318Z,19.61
2018-12-21T09:02:42.175Z,19.63
2018-12-21T09:03:42.322Z,19.63
2018-12-21T09:04:42.792Z,19.61
2018-12-21T09:05:42.737Z,19.63
2018-12-21T09:06:42.331Z,19.64
2018-12-21T09:07:42.275Z,19.63
2018-12-21T09:08:42.017Z,19.61
2018-12-21T09:09:42.223Z,19.63
2018-12-21T09:10:42.969Z,19.64
2018-12-21T09:11:42.594Z,19.65
2018-12-21T09:12:42.316Z,19.68
2018-12-21T09:13:42.369Z,19.68
2018-12-21T09:14:42.410Z,19.68
2018-12-21T09:15:42.775Z,19.71
2018-12-21T09:16:42.693Z,19.74
2018-12-21T09:17:42.327Z,19.73
2018-12-21T09:18:42.599Z,19.73
2018-12-21T09:19:42.516Z,19.73
2018-12-21T09:20:42.448Z,19.71
2018-12-21T09:21:42.521Z,19.73
2018-12-21T09:22:42.435Z,19.74
2018-12-21T09:23:42.213Z,19.74
2018-12-21T09:24:42.429Z,19.74
2018-12-21T09:25:42.225Z,19.74
2018-12-21T09:26:42.089Z,19.77
2018-12-21T09:27:42.191Z,19.78
2018-12-21T09:28:42.493Z,19.8
2018-12-21T09:29:42.799Z,19.8
2018-12-21T09:30:42.920Z,19.8
2018-12-21T09:31:42.274Z,19.81
2018-12-21T09:32:42.238Z,19.8
2018-12-21T09:33:42.749Z,19.84
2018-12-21T09:34:42.478Z,19.81
2018-12-21T09:35:42.422Z,19.82
2018-12-21T09:36:43.345Z,19.82
2018-12-21T09:37:42.345Z,19.88
2018-12-21T09:38:42.288Z,19.86
2018-12-21T09:39:42.291Z,19.88
2018-12-21T09:40:42.675Z,19.88
2018-12-21T09:41:42.220Z,19.88
2018-12-21T09:42:42.475Z,19.88
2018-12-21T09:43:42.784Z,19.89
2018-12-21T09:44:42.076Z,19.88
2018-12-21T09:45:42.830Z,19.89
2018-12-21T09:46:42.691Z,19.88
2018-12-21T09:47:42.584Z,19.88
2018-12-21T09:48:42.161Z,19.89
2018-12-21T09:49:42.377Z,19.89
2018-12-21T09:50:42.639Z,19.91
2018-12-21T09:51:42.664Z,19.92
2018-12-21T09:52:42.408Z,19.88
2018-12-21T09:53:42.059Z,19.91
2018-12-21T09:54:42.521Z,19.92
2018-12-21T09:55:43.401Z,19.93
2018-12-21T09:56:42.189Z,19.93
2018-12-21T09:57:42.355Z,19.93
2018-12-21T09:58:42.506Z,19.95
2018-12-21T09:59:42.324Z,19.95
2018-12-21T10:00:42.520Z,19.99
2018-12-21T10:01:42.513Z,19.96
2018-12-21T10:02:42.413Z,19.96
2018-12-21T10:03:42.914Z,19.96
2018-12-21T10:04:42.823Z,20.01
2018-12-21T10:05:42.377Z,20.02
2018-12-21T10:06:42.540Z,20.01
2018-12-21T10:07:42.243Z,20.01
2018-12-21T10:08:42.775Z,20.02
2018-12-21T10:09:42.315Z,20.02
2018-12-21T10:10:42.463Z,20.02
2018-12-21T10:11:42.158Z,20.04
2018-12-21T10:12:42.328Z,20.07
2018-12-21T10:13:42.349Z,20.07
2018-12-21T10:14:42.227Z,20.07
2018-12-21T10:15:42.333Z,20.08
2018-12-21T10:16:42.513Z,20.08
2018-12-21T10:17:42.532Z,20.11
2018-12-21T10:18:42.602Z,20.09
2018-12-21T10:19:42.655Z,20.08
2018-12-21T10:20:42.233Z,20.11
2018-12-21T10:21:42.269Z,20.11
2018-12-21T10:22:42.361Z,20.12
2018-12-21T10:23:42.206Z,20.15
2018-12-21T10:24:42.478Z,20.13
2018-12-21T10:25:42.954Z,20.12
2018-12-21T10:26:42.430Z,20.12
2018-12-21T10:27:42.251Z,20.12
2018-12-21T10:28:42.416Z,20.13
2018-12-21T10:29:42.519Z,20.13
2018-12-21T10:30:42.096Z,20.11
2018-12-21T10:31:42.205Z,20.11
2018-12-21T10:32:42.128Z,20.12
2018-12-21T10:33:42.569Z,20.09
2018-12-21T10:34:42.278Z,20.13
2018-12-21T10:35:42.854Z,20.11
2018-12-21T10:36:43.086Z,20.12
2018-12-21T10:37:42.375Z,20.13
2018-12-21T10:38:42.198Z,20.12
2018-12-21T10:39:42.428Z,20.16
2018-12-21T10:40:42.773Z,20.12
2018-12-21T10:41:42.285Z,20.15
2018-12-21T10:42:42.182Z,20.15
2018-12-21T10:43:42.365Z,20.11
2018-12-21T10:44:43.067Z,20.16
2018-12-21T10:45:42.271Z,20.13
2018-12-21T10:46:42.613Z,20.13
2018-12-21T10:47:42.356Z,20.15
2018-12-21T10:48:42.672Z,20.11
2018-12-21T10:49:42.178Z,20.12
2018-12-21T10:50:42.456Z,20.13
2018-12-21T10:51:42.273Z,20.13
2018-12-21T10:52:42.488Z,20.12
2018-12-21T10:53:46.939Z,20.13
2018-12-21T10:54:42.275Z,20.11
2018-12-21T10:55:42.421Z,20.09
2018-12-21T10:56:41.987Z,20.09
2018-12-21T10:57:42.637Z,20.08
2018-12-21T10:58:42.114Z,20.07
2018-12-21T10:59:43.991Z,20.07
2018-12-21T11:00:42.296Z,20.02
2018-12-21T11:01:42.233Z,20.05
2018-12-21T11:02:42.484Z,20.04
2018-12-21T11:03:42.243Z,20.02
2018-12-21T11:04:42.650Z,20.02
2018-12-21T11:05:43.262Z,19.99
2018-12-21T11:06:42.265Z,20.02
2018-12-21T11:07:42.142Z,19.99
2018-12-21T11:08:42.377Z,20.01
2018-12-21T11:09:42.932Z,19.99
2018-12-21T11:10:42.126Z,19.99
2018-12-21T11:11:42.361Z,20.01
2018-12-21T11:12:42.118Z,19.98
2018-12-21T11:13:42.341Z,19.99
2018-12-21T11:14:42.081Z,19.98
2018-12-21T11:15:42.263Z,19.98
2018-12-21T11:16:42.171Z,19.96
2018-12-21T11:17:44.329Z,20.01
2018-12-21T11:18:42.482Z,19.99
2018-12-21T11:19:42.353Z,19.98
2018-12-21T11:20:42.103Z,19.98
2018-12-21T11:21:43.008Z,19.98
2018-12-21T11:22:42.243Z,19.98
2018-12-21T11:23:42.287Z,19.95
2018-12-21T11:24:42.092Z,19.96
2018-12-21T11:25:42.491Z,19.96
2018-12-21T11:26:43.472Z,19.99
2018-12-21T11:27:42.420Z,19.96
2018-12-21T11:28:42.509Z,19.98
2018-12-21T11:29:42.662Z,19.98
2018-12-21T11:30:42.374Z,19.96
2018-12-21T11:31:42.204Z,19.96
2018-12-21T11:32:42.536Z,19.96
2018-12-21T11:33:43.739Z,19.93
2018-12-21T11:34:42.187Z,19.98
2018-12-21T11:35:42.553Z,19.96
2018-12-21T11:36:42.284Z,19.93
2018-12-21T11:37:42.872Z,19.98
2018-12-21T11:38:42.251Z,19.96
2018-12-21T11:39:42.458Z,19.96
2018-12-21T11:40:42.736Z,19.95
2018-12-21T11:41:42.725Z,19.96
2018-12-21T11:42:42.417Z,19.92
2018-12-21T11:43:42.502Z,19.98
2018-12-21T11:44:42.231Z,19.98
2018-12-21T11:45:43.022Z,19.95
2018-12-21T11:46:42.690Z,20.01
2018-12-21T11:47:42.588Z,19.95
2018-12-21T11:48:42.721Z,19.98
2018-12-21T11:49:42.700Z,19.99
2018-12-21T11:50:42.357Z,19.99
2018-12-21T11:51:42.546Z,20.01
2018-12-21T11:52:42.276Z,20.04
2018-12-21T11:53:42.289Z,20.07
2018-12-21T11:54:44.737Z,20.04
2018-12-21T11:55:42.683Z,20.07
2018-12-21T11:56:42.450Z,20.07
2018-12-21T11:57:42.256Z,20.09
2018-12-21T11:58:42.552Z,20.09
2018-12-21T11:59:45.463Z,20.11
2018-12-21T12:00:42.276Z,20.09
2018-12-21T12:01:42.596Z,20.11
2018-12-21T12:02:43.173Z,20.12
2018-12-21T12:03:42.709Z,20.13
2018-12-21T12:04:42.231Z,20.12
2018-12-21T12:05:42.998Z,20.12
2018-12-21T12:06:42.271Z,20.15
2018-12-21T12:07:42.006Z,20.13
2018-12-21T12:08:42.511Z,20.16
2018-12-21T12:09:43.021Z,20.15
2018-12-21T12:10:42.357Z,20.16
2018-12-21T12:11:42.712Z,20.15
2018-12-21T12:12:42.128Z,20.18
2018-12-21T12:13:42.165Z,20.18
2018-12-21T12:14:42.450Z,20.18
2018-12-21T12:15:42.470Z,20.16
2018-12-21T12:16:42.693Z,20.18
2018-12-21T12:17:42.488Z,20.18
2018-12-21T12:18:42.988Z,20.16
2018-12-21T12:19:42.358Z,20.16
2018-12-21T12:20:42.271Z,20.18
2018-12-21T12:21:42.122Z,20.16
2018-12-21T12:22:42.378Z,20.15
2018-12-21T12:23:42.378Z,20.18
2018-12-21T12:24:42.118Z,20.16
2018-12-21T12:25:42.158Z,20.15
2018-12-21T12:26:44.864Z,20.15
2018-12-21T12:27:42.394Z,20.11
2018-12-21T12:28:42.346Z,20.12
2018-12-21T12:29:42.181Z,20.11
2018-12-21T12:30:42.562Z,20.11
2018-12-21T12:31:43.252Z,20.12
2018-12-21T12:32:42.325Z,20.05
2018-12-21T12:33:42.511Z,20.09
2018-12-21T12:34:42.015Z,20.07
2018-12-21T12:35:42.583Z,20.07
2018-12-21T12:36:42.411Z,20.07
2018-12-21T12:37:42.828Z,20.08
2018-12-21T12:38:42.103Z,20.05
2018-12-21T12:39:42.332Z,20.08
2018-12-21T12:40:42.304Z,20.04
2018-12-21T12:41:42.332Z,20.05
2018-12-21T12:42:42.422Z,20.04
2018-12-21T12:43:42.233Z,20.04
2018-12-21T12:44:42.476Z,20.02
2018-12-21T12:45:42.172Z,20.04
2018-12-21T12:46:42.809Z,20.04
2018-12-21T12:47:42.147Z,19.99
2018-12-21T12:48:42.214Z,20.02
2018-12-21T12:49:42.090Z,20.02
2018-12-21T12:50:42.094Z,19.99
2018-12-21T12:51:42.110Z,20.02
2018-12-21T12:52:42.387Z,19.99
2018-12-21T12:53:42.311Z,20.01
2018-12-21T12:54:42.314Z,20.02
2018-12-21T12:55:42.236Z,20.01